sensor_id;sensor_type;location;lat;lon;timestamp;P1;durP1;ratioP1;P2;durP2;ratioP2
35330;SDS011;21441;52.190;20.910;2022-11-15T00:02:24;42.63;;;21.25;;
35330;SDS011;21441;52.190;20.910;2022-11-15T00:04:52;40.47;;;20.77;;
35330;SDS011;21441;52.190;20.910;2022-11-15T00:07:19;50.30;;;25.08;;
35330;SDS011;21441;52.190;20.910;2022-11-15T00:09:46;48.90;;;25.33;;
35330;SDS011;21441;52.190;20.910;2022-11-15T00:12:13;50.58;;;23.73;;
35330;SDS011;21441;52.190;20.910;2022-11-15T00:14:40;43.85;;;22.15;;
35330;SDS011;21441;52.190;20.910;2022-11-15T00:17:07;49.17;;;22.60;;
35330;SDS011;21441;52.190;20.910;2022-11-15T00:19:34;53.75;;;28.35;;
35330;SDS011;21441;52.190;20.910;2022-11-15T00:22:03;55.35;;;25.08;;
35330;SDS011;21441;52.190;20.910;2022-11-15T00:24:29;49.85;;;24.33;;
35330;SDS011;21441;52.190;20.910;2022-11-15T00:26:57;54.05;;;23.17;;
35330;SDS011;21441;52.190;20.910;2022-11-15T00:29:24;51.65;;;25.13;;
35330;SDS011;21441;52.190;20.910;2022-11-15T00:31:52;54.78;;;26.48;;
35330;SDS011;21441;52.190;20.910;2022-11-15T00:34:19;53.05;;;25.08;;
35330;SDS011;21441;52.190;20.910;2022-11-15T00:36:46;63.05;;;25.92;;
35330;SDS011;21441;52.190;20.910;2022-11-15T00:39:14;59.95;;;25.27;;
35330;SDS011;21441;52.190;20.910;2022-11-15T00:41:41;61.95;;;27.00;;
35330;SDS011;21441;52.190;20.910;2022-11-15T00:44:08;42.53;;;19.33;;
35330;SDS011;21441;52.190;20.910;2022-11-15T00:46:35;44.90;;;19.73;;
35330;SDS011;21441;52.190;20.910;2022-11-15T00:49:02;51.80;;;23.95;;
35330;SDS011;21441;52.190;20.910;2022-11-15T00:51:29;63.75;;;28.08;;
35330;SDS011;21441;52.190;20.910;2022-11-15T00:53:56;52.78;;;21.27;;
35330;SDS011;21441;52.190;20.910;2022-11-15T00:56:25;57.13;;;25.10;;
35330;SDS011;21441;52.190;20.910;2022-11-15T00:58:52;64.38;;;26.48;;
35330;SDS011;21441;52.190;20.910;2022-11-15T01:01:21;43.40;;;19.48;;
35330;SDS011;21441;52.190;20.910;2022-11-15T01:03:48;43.53;;;20.67;;
35330;SDS011;21441;52.190;20.910;2022-11-15T01:06:15;64.70;;;25.55;;
35330;SDS011;21441;52.190;20.910;2022-11-15T01:08:42;46.28;;;22.00;;
35330;SDS011;21441;52.190;20.910;2022-11-15T01:11:10;57.05;;;25.45;;
35330;SDS011;21441;52.190;20.910;2022-11-15T01:13:39;41.05;;;21.33;;
35330;SDS011;21441;52.190;20.910;2022-11-15T01:16:07;44.15;;;20.80;;
35330;SDS011;21441;52.190;20.910;2022-11-15T01:18:36;55.58;;;24.33;;
35330;SDS011;21441;52.190;20.910;2022-11-15T01:21:07;54.50;;;24.50;;
35330;SDS011;21441;52.190;20.910;2022-11-15T01:23:35;56.33;;;23.83;;
35330;SDS011;21441;52.190;20.910;2022-11-15T01:26:04;52.35;;;24.48;;
35330;SDS011;21441;52.190;20.910;2022-11-15T01:28:32;59.20;;;25.53;;
35330;SDS011;21441;52.190;20.910;2022-11-15T01:31:03;50.75;;;23.00;;
35330;SDS011;21441;52.190;20.910;2022-11-15T01:33:33;49.97;;;22.13;;
35330;SDS011;21441;52.190;20.910;2022-11-15T01:36:03;58.25;;;24.60;;
35330;SDS011;21441;52.190;20.910;2022-11-15T01:38:30;55.17;;;25.55;;
35330;SDS011;21441;52.190;20.910;2022-11-15T01:40:57;54.05;;;25.42;;
35330;SDS011;21441;52.190;20.910;2022-11-15T01:43:25;47.58;;;24.30;;
35330;SDS011;21441;52.190;20.910;2022-11-15T01:45:55;53.42;;;23.75;;
35330;SDS011;21441;52.190;20.910;2022-11-15T01:48:28;54.92;;;24.55;;
35330;SDS011;21441;52.190;20.910;2022-11-15T01:50:58;53.05;;;26.38;;
35330;SDS011;21441;52.190;20.910;2022-11-15T01:53:27;56.75;;;24.90;;
35330;SDS011;21441;52.190;20.910;2022-11-15T01:55:56;58.85;;;26.10;;
35330;SDS011;21441;52.190;20.910;2022-11-15T01:58:24;59.83;;;27.70;;
35330;SDS011;21441;52.190;20.910;2022-11-15T02:00:51;56.85;;;26.08;;
35330;SDS011;21441;52.190;20.910;2022-11-15T02:03:19;66.47;;;26.88;;
35330;SDS011;21441;52.190;20.910;2022-11-15T02:05:53;62.13;;;26.67;;
35330;SDS011;21441;52.190;20.910;2022-11-15T02:08:20;59.05;;;28.00;;
35330;SDS011;21441;52.190;20.910;2022-11-15T02:10:47;60.75;;;26.67;;
35330;SDS011;21441;52.190;20.910;2022-11-15T02:13:14;63.90;;;28.92;;
35330;SDS011;21441;52.190;20.910;2022-11-15T02:15:44;65.07;;;29.17;;
35330;SDS011;21441;52.190;20.910;2022-11-15T02:18:22;65.50;;;30.50;;
35330;SDS011;21441;52.190;20.910;2022-11-15T02:21:00;68.50;;;28.63;;
35330;SDS011;21441;52.190;20.910;2022-11-15T02:23:45;66.60;;;27.00;;
35330;SDS011;21441;52.190;20.910;2022-11-15T02:26:46;69.93;;;29.52;;
35330;SDS011;21441;52.190;20.910;2022-11-15T02:29:25;66.68;;;30.20;;
35330;SDS011;21441;52.190;20.910;2022-11-15T02:32:05;76.45;;;30.92;;
35330;SDS011;21441;52.190;20.910;2022-11-15T02:34:43;61.40;;;25.17;;
35330;SDS011;21441;52.190;20.910;2022-11-15T02:37:19;64.10;;;28.67;;
35330;SDS011;21441;52.190;20.910;2022-11-15T02:39:54;64.25;;;27.67;;
35330;SDS011;21441;52.190;20.910;2022-11-15T02:42:28;63.78;;;28.58;;
35330;SDS011;21441;52.190;20.910;2022-11-15T02:45:17;53.53;;;25.38;;
35330;SDS011;21441;52.190;20.910;2022-11-15T02:47:51;64.20;;;27.45;;
35330;SDS011;21441;52.190;20.910;2022-11-15T02:50:24;53.33;;;25.45;;
35330;SDS011;21441;52.190;20.910;2022-11-15T02:52:55;53.78;;;21.10;;
35330;SDS011;21441;52.190;20.910;2022-11-15T02:55:26;66.28;;;26.55;;
35330;SDS011;21441;52.190;20.910;2022-11-15T02:58:01;68.20;;;30.20;;
35330;SDS011;21441;52.190;20.910;2022-11-15T03:00:39;70.40;;;29.73;;
35330;SDS011;21441;52.190;20.910;2022-11-15T03:03:17;67.45;;;29.63;;
35330;SDS011;21441;52.190;20.910;2022-11-15T03:06:02;67.35;;;29.05;;
35330;SDS011;21441;52.190;20.910;2022-11-15T03:08:40;67.97;;;27.73;;
35330;SDS011;21441;52.190;20.910;2022-11-15T03:11:17;70.53;;;27.35;;
35330;SDS011;21441;52.190;20.910;2022-11-15T03:13:47;57.30;;;25.98;;
35330;SDS011;21441;52.190;20.910;2022-11-15T03:16:20;65.85;;;25.73;;
35330;SDS011;21441;52.190;20.910;2022-11-15T03:18:56;63.97;;;27.73;;
35330;SDS011;21441;52.190;20.910;2022-11-15T03:21:28;65.57;;;29.67;;
35330;SDS011;21441;52.190;20.910;2022-11-15T03:23:57;64.50;;;26.02;;
35330;SDS011;21441;52.190;20.910;2022-11-15T03:26:27;68.97;;;28.17;;
35330;SDS011;21441;52.190;20.910;2022-11-15T03:28:57;67.80;;;25.85;;
35330;SDS011;21441;52.190;20.910;2022-11-15T03:31:28;60.55;;;25.50;;
35330;SDS011;21441;52.190;20.910;2022-11-15T03:34:18;42.92;;;17.90;;
35330;SDS011;21441;52.190;20.910;2022-11-15T03:36:50;62.53;;;26.02;;
35330;SDS011;21441;52.190;20.910;2022-11-15T03:39:18;69.80;;;29.10;;
35330;SDS011;21441;52.190;20.910;2022-11-15T03:41:48;62.00;;;25.80;;
35330;SDS011;21441;52.190;20.910;2022-11-15T03:44:22;72.90;;;30.58;;
35330;SDS011;21441;52.190;20.910;2022-11-15T03:47:02;62.22;;;25.13;;
35330;SDS011;21441;52.190;20.910;2022-11-15T03:49:34;63.83;;;25.33;;
35330;SDS011;21441;52.190;20.910;2022-11-15T03:52:03;72.00;;;29.63;;
35330;SDS011;21441;52.190;20.910;2022-11-15T03:54:31;74.43;;;29.33;;
35330;SDS011;21441;52.190;20.910;2022-11-15T03:56:58;50.65;;;22.45;;
35330;SDS011;21441;52.190;20.910;2022-11-15T03:59:26;73.55;;;29.75;;
35330;SDS011;21441;52.190;20.910;2022-11-15T04:01:52;70.28;;;27.88;;
35330;SDS011;21441;52.190;20.910;2022-11-15T04:04:20;62.88;;;27.85;;
35330;SDS011;21441;52.190;20.910;2022-11-15T04:06:48;85.47;;;30.98;;
35330;SDS011;21441;52.190;20.910;2022-11-15T04:09:15;69.60;;;27.83;;
35330;SDS011;21441;52.190;20.910;2022-11-15T04:11:42;74.65;;;27.58;;
35330;SDS011;21441;52.190;20.910;2022-11-15T04:14:09;74.18;;;29.50;;
35330;SDS011;21441;52.190;20.910;2022-11-15T04:16:36;81.32;;;28.90;;
35330;SDS011;21441;52.190;20.910;2022-11-15T04:19:04;78.13;;;29.67;;
35330;SDS011;21441;52.190;20.910;2022-11-15T04:21:50;62.78;;;23.42;;
35330;SDS011;21441;52.190;20.910;2022-11-15T04:24:34;84.75;;;30.95;;
35330;SDS011;21441;52.190;20.910;2022-11-15T04:27:01;84.43;;;32.08;;
35330;SDS011;21441;52.190;20.910;2022-11-15T04:29:28;81.72;;;29.75;;
35330;SDS011;21441;52.190;20.910;2022-11-15T04:32:02;78.13;;;29.75;;
35330;SDS011;21441;52.190;20.910;2022-11-15T04:34:30;86.30;;;31.23;;
35330;SDS011;21441;52.190;20.910;2022-11-15T04:36:58;64.82;;;25.75;;
35330;SDS011;21441;52.190;20.910;2022-11-15T04:39:42;73.55;;;28.55;;
35330;SDS011;21441;52.190;20.910;2022-11-15T04:42:10;76.07;;;27.38;;
35330;SDS011;21441;52.190;20.910;2022-11-15T04:44:38;74.88;;;27.50;;
35330;SDS011;21441;52.190;20.910;2022-11-15T04:47:04;73.03;;;28.63;;
35330;SDS011;21441;52.190;20.910;2022-11-15T04:49:32;76.70;;;29.58;;
35330;SDS011;21441;52.190;20.910;2022-11-15T04:52:00;70.80;;;26.42;;
35330;SDS011;21441;52.190;20.910;2022-11-15T04:54:27;70.75;;;26.05;;
35330;SDS011;21441;52.190;20.910;2022-11-15T04:56:54;71.93;;;26.73;;
35330;SDS011;21441;52.190;20.910;2022-11-15T04:59:21;79.93;;;28.38;;
35330;SDS011;21441;52.190;20.910;2022-11-15T05:01:48;75.40;;;27.70;;
35330;SDS011;21441;52.190;20.910;2022-11-15T05:04:15;76.13;;;25.67;;
35330;SDS011;21441;52.190;20.910;2022-11-15T05:06:44;76.78;;;27.08;;
35330;SDS011;21441;52.190;20.910;2022-11-15T05:09:13;76.53;;;27.10;;
35330;SDS011;21441;52.190;20.910;2022-11-15T05:11:40;73.03;;;26.40;;
35330;SDS011;21441;52.190;20.910;2022-11-15T05:14:08;83.28;;;30.27;;
35330;SDS011;21441;52.190;20.910;2022-11-15T05:16:35;90.72;;;30.00;;
35330;SDS011;21441;52.190;20.910;2022-11-15T05:19:02;81.75;;;27.58;;
35330;SDS011;21441;52.190;20.910;2022-11-15T05:21:30;93.35;;;28.92;;
35330;SDS011;21441;52.190;20.910;2022-11-15T05:23:58;88.00;;;29.27;;
35330;SDS011;21441;52.190;20.910;2022-11-15T05:26:27;85.20;;;28.52;;
35330;SDS011;21441;52.190;20.910;2022-11-15T05:28:55;88.63;;;27.30;;
35330;SDS011;21441;52.190;20.910;2022-11-15T05:31:24;85.35;;;30.02;;
35330;SDS011;21441;52.190;20.910;2022-11-15T05:33:52;90.88;;;29.20;;
35330;SDS011;21441;52.190;20.910;2022-11-15T05:36:22;96.43;;;33.17;;
35330;SDS011;21441;52.190;20.910;2022-11-15T05:38:54;93.30;;;27.90;;
35330;SDS011;21441;52.190;20.910;2022-11-15T05:41:22;84.85;;;30.70;;
35330;SDS011;21441;52.190;20.910;2022-11-15T05:43:57;83.43;;;26.77;;
35330;SDS011;21441;52.190;20.910;2022-11-15T05:46:26;82.20;;;27.90;;
35330;SDS011;21441;52.190;20.910;2022-11-15T05:48:54;78.70;;;24.00;;
35330;SDS011;21441;52.190;20.910;2022-11-15T05:51:22;72.70;;;24.08;;
35330;SDS011;21441;52.190;20.910;2022-11-15T05:53:50;78.78;;;25.80;;
35330;SDS011;21441;52.190;20.910;2022-11-15T05:56:19;78.25;;;25.17;;
35330;SDS011;21441;52.190;20.910;2022-11-15T05:58:48;75.90;;;24.15;;
35330;SDS011;21441;52.190;20.910;2022-11-15T06:01:14;85.65;;;24.90;;
35330;SDS011;21441;52.190;20.910;2022-11-15T06:03:42;79.63;;;25.80;;
35330;SDS011;21441;52.190;20.910;2022-11-15T06:06:09;85.18;;;26.92;;
35330;SDS011;21441;52.190;20.910;2022-11-15T06:08:36;89.65;;;29.02;;
35330;SDS011;21441;52.190;20.910;2022-11-15T06:11:03;81.85;;;24.88;;
35330;SDS011;21441;52.190;20.910;2022-11-15T06:13:31;63.72;;;23.88;;
35330;SDS011;21441;52.190;20.910;2022-11-15T06:16:00;77.15;;;24.90;;
35330;SDS011;21441;52.190;20.910;2022-11-15T06:18:27;93.05;;;26.25;;
35330;SDS011;21441;52.190;20.910;2022-11-15T06:20:57;85.18;;;27.25;;
35330;SDS011;21441;52.190;20.910;2022-11-15T06:23:25;69.10;;;24.90;;
35330;SDS011;21441;52.190;20.910;2022-11-15T06:25:53;74.85;;;27.58;;
35330;SDS011;21441;52.190;20.910;2022-11-15T06:28:20;73.13;;;24.80;;
35330;SDS011;21441;52.190;20.910;2022-11-15T06:30:47;76.97;;;26.23;;
35330;SDS011;21441;52.190;20.910;2022-11-15T06:33:16;69.00;;;24.55;;
35330;SDS011;21441;52.190;20.910;2022-11-15T06:35:42;76.30;;;24.92;;
35330;SDS011;21441;52.190;20.910;2022-11-15T06:38:10;77.25;;;26.70;;
35330;SDS011;21441;52.190;20.910;2022-11-15T06:40:37;67.70;;;22.08;;
35330;SDS011;21441;52.190;20.910;2022-11-15T06:43:05;64.45;;;21.35;;
35330;SDS011;21441;52.190;20.910;2022-11-15T06:45:33;63.95;;;21.70;;
35330;SDS011;21441;52.190;20.910;2022-11-15T06:48:00;75.70;;;23.58;;
35330;SDS011;21441;52.190;20.910;2022-11-15T06:50:29;64.80;;;22.15;;
35330;SDS011;21441;52.190;20.910;2022-11-15T06:52:59;70.72;;;24.25;;
35330;SDS011;21441;52.190;20.910;2022-11-15T06:55:27;62.53;;;23.05;;
35330;SDS011;21441;52.190;20.910;2022-11-15T06:57:54;78.22;;;24.85;;
35330;SDS011;21441;52.190;20.910;2022-11-15T07:00:22;73.32;;;26.75;;
35330;SDS011;21441;52.190;20.910;2022-11-15T07:02:49;75.15;;;23.75;;
35330;SDS011;21441;52.190;20.910;2022-11-15T07:05:16;77.40;;;24.23;;
35330;SDS011;21441;52.190;20.910;2022-11-15T07:07:45;78.50;;;26.13;;
35330;SDS011;21441;52.190;20.910;2022-11-15T07:10:17;73.97;;;24.05;;
35330;SDS011;21441;52.190;20.910;2022-11-15T07:12:46;75.03;;;26.20;;
35330;SDS011;21441;52.190;20.910;2022-11-15T07:15:14;61.25;;;20.98;;
35330;SDS011;21441;52.190;20.910;2022-11-15T07:17:41;65.20;;;21.42;;
35330;SDS011;21441;52.190;20.910;2022-11-15T07:20:08;70.43;;;25.83;;
35330;SDS011;21441;52.190;20.910;2022-11-15T07:22:36;72.32;;;25.42;;
35330;SDS011;21441;52.190;20.910;2022-11-15T07:25:04;71.18;;;24.83;;
35330;SDS011;21441;52.190;20.910;2022-11-15T07:27:32;55.85;;;21.05;;
35330;SDS011;21441;52.190;20.910;2022-11-15T07:29:59;73.05;;;25.00;;
35330;SDS011;21441;52.190;20.910;2022-11-15T07:32:27;70.03;;;23.92;;
35330;SDS011;21441;52.190;20.910;2022-11-15T07:34:54;63.13;;;22.17;;
35330;SDS011;21441;52.190;20.910;2022-11-15T07:37:21;70.70;;;22.17;;
35330;SDS011;21441;52.190;20.910;2022-11-15T07:39:56;62.47;;;21.80;;
35330;SDS011;21441;52.190;20.910;2022-11-15T07:42:51;57.97;;;20.42;;
35330;SDS011;21441;52.190;20.910;2022-11-15T07:45:21;63.88;;;23.95;;
35330;SDS011;21441;52.190;20.910;2022-11-15T07:47:51;62.00;;;23.45;;
35330;SDS011;21441;52.190;20.910;2022-11-15T07:50:19;63.92;;;22.65;;
35330;SDS011;21441;52.190;20.910;2022-11-15T07:52:46;56.75;;;21.20;;
35330;SDS011;21441;52.190;20.910;2022-11-15T07:55:13;54.20;;;21.30;;
35330;SDS011;21441;52.190;20.910;2022-11-15T07:57:41;61.60;;;23.27;;
35330;SDS011;21441;52.190;20.910;2022-11-15T08:00:10;52.58;;;22.08;;
35330;SDS011;21441;52.190;20.910;2022-11-15T08:05:11;48.95;;;22.35;;
35330;SDS011;21441;52.190;20.910;2022-11-15T08:07:43;44.55;;;19.05;;
35330;SDS011;21441;52.190;20.910;2022-11-15T08:10:10;50.90;;;20.33;;
35330;SDS011;21441;52.190;20.910;2022-11-15T08:12:39;58.08;;;22.52;;
35330;SDS011;21441;52.190;20.910;2022-11-15T08:15:06;57.50;;;21.27;;
35330;SDS011;21441;52.190;20.910;2022-11-15T08:17:35;55.08;;;20.58;;
35330;SDS011;21441;52.190;20.910;2022-11-15T08:20:02;48.47;;;21.73;;
35330;SDS011;21441;52.190;20.910;2022-11-15T08:22:30;50.95;;;22.23;;
35330;SDS011;21441;52.190;20.910;2022-11-15T08:24:57;54.53;;;20.80;;
35330;SDS011;21441;52.190;20.910;2022-11-15T08:27:24;55.67;;;21.75;;
35330;SDS011;21441;52.190;20.910;2022-11-15T08:29:51;47.33;;;19.60;;
35330;SDS011;21441;52.190;20.910;2022-11-15T08:32:19;46.40;;;20.42;;
35330;SDS011;21441;52.190;20.910;2022-11-15T08:34:47;41.67;;;18.20;;
35330;SDS011;21441;52.190;20.910;2022-11-15T08:37:14;56.28;;;21.90;;
35330;SDS011;21441;52.190;20.910;2022-11-15T08:39:41;49.28;;;21.10;;
35330;SDS011;21441;52.190;20.910;2022-11-15T08:42:08;48.90;;;20.70;;
35330;SDS011;21441;52.190;20.910;2022-11-15T08:44:35;63.67;;;22.38;;
35330;SDS011;21441;52.190;20.910;2022-11-15T08:47:03;49.47;;;22.13;;
35330;SDS011;21441;52.190;20.910;2022-11-15T08:49:30;57.25;;;22.38;;
35330;SDS011;21441;52.190;20.910;2022-11-15T08:51:59;50.40;;;23.70;;
35330;SDS011;21441;52.190;20.910;2022-11-15T08:54:25;42.63;;;20.30;;
35330;SDS011;21441;52.190;20.910;2022-11-15T08:56:53;49.15;;;20.92;;
35330;SDS011;21441;52.190;20.910;2022-11-15T08:59:20;43.08;;;20.40;;
35330;SDS011;21441;52.190;20.910;2022-11-15T09:01:47;51.10;;;22.90;;
35330;SDS011;21441;52.190;20.910;2022-11-15T09:04:14;43.95;;;18.83;;
35330;SDS011;21441;52.190;20.910;2022-11-15T09:06:41;46.42;;;20.65;;
35330;SDS011;21441;52.190;20.910;2022-11-15T09:09:10;47.92;;;21.65;;
35330;SDS011;21441;52.190;20.910;2022-11-15T09:11:40;45.47;;;20.77;;
35330;SDS011;21441;52.190;20.910;2022-11-15T09:14:07;45.92;;;20.92;;
35330;SDS011;21441;52.190;20.910;2022-11-15T09:16:34;48.60;;;20.17;;
35330;SDS011;21441;52.190;20.910;2022-11-15T09:19:01;46.78;;;20.35;;
35330;SDS011;21441;52.190;20.910;2022-11-15T09:21:28;44.15;;;19.30;;
35330;SDS011;21441;52.190;20.910;2022-11-15T09:23:56;45.40;;;19.92;;
35330;SDS011;21441;52.190;20.910;2022-11-15T09:26:24;43.90;;;18.50;;
35330;SDS011;21441;52.190;20.910;2022-11-15T09:28:51;41.80;;;19.55;;
35330;SDS011;21441;52.190;20.910;2022-11-15T09:31:19;51.83;;;21.95;;
35330;SDS011;21441;52.190;20.910;2022-11-15T09:33:46;44.20;;;17.95;;
35330;SDS011;21441;52.190;20.910;2022-11-15T09:36:13;45.45;;;20.13;;
35330;SDS011;21441;52.190;20.910;2022-11-15T09:38:40;49.65;;;20.95;;
35330;SDS011;21441;52.190;20.910;2022-11-15T09:41:21;45.40;;;21.15;;
35330;SDS011;21441;52.190;20.910;2022-11-15T09:44:07;36.88;;;16.17;;
35330;SDS011;21441;52.190;20.910;2022-11-15T09:46:48;45.35;;;20.23;;
35330;SDS011;21441;52.190;20.910;2022-11-15T09:49:23;45.35;;;20.63;;
35330;SDS011;21441;52.190;20.910;2022-11-15T09:51:51;42.90;;;21.10;;
35330;SDS011;21441;52.190;20.910;2022-11-15T09:54:23;47.45;;;20.55;;
35330;SDS011;21441;52.190;20.910;2022-11-15T09:57:02;47.00;;;19.92;;
35330;SDS011;21441;52.190;20.910;2022-11-15T10:02:36;49.63;;;21.80;;
35330;SDS011;21441;52.190;20.910;2022-11-15T10:05:14;39.97;;;17.90;;
35330;SDS011;21441;52.190;20.910;2022-11-15T10:07:46;48.28;;;21.05;;
35330;SDS011;21441;52.190;20.910;2022-11-15T10:10:23;40.85;;;20.27;;
35330;SDS011;21441;52.190;20.910;2022-11-15T10:12:58;54.40;;;22.88;;
35330;SDS011;21441;52.190;20.910;2022-11-15T10:15:25;48.53;;;22.42;;
35330;SDS011;21441;52.190;20.910;2022-11-15T10:18:04;56.28;;;22.27;;
35330;SDS011;21441;52.190;20.910;2022-11-15T10:20:39;48.92;;;21.13;;
35330;SDS011;21441;52.190;20.910;2022-11-15T10:23:14;47.80;;;23.45;;
35330;SDS011;21441;52.190;20.910;2022-11-15T10:25:42;48.60;;;21.02;;
35330;SDS011;21441;52.190;20.910;2022-11-15T10:28:13;45.65;;;20.83;;
35330;SDS011;21441;52.190;20.910;2022-11-15T10:30:43;46.40;;;21.20;;
35330;SDS011;21441;52.190;20.910;2022-11-15T10:33:13;51.30;;;22.15;;
35330;SDS011;21441;52.190;20.910;2022-11-15T10:35:48;42.42;;;22.17;;
35330;SDS011;21441;52.190;20.910;2022-11-15T10:38:49;48.78;;;22.02;;
35330;SDS011;21441;52.190;20.910;2022-11-15T10:41:20;43.65;;;21.20;;
35330;SDS011;21441;52.190;20.910;2022-11-15T10:44:02;45.95;;;21.00;;
35330;SDS011;21441;52.190;20.910;2022-11-15T10:46:37;45.13;;;21.23;;
35330;SDS011;21441;52.190;20.910;2022-11-15T10:49:12;38.83;;;20.40;;
35330;SDS011;21441;52.190;20.910;2022-11-15T10:51:41;49.13;;;22.08;;
35330;SDS011;21441;52.190;20.910;2022-11-15T10:54:11;43.83;;;21.85;;
35330;SDS011;21441;52.190;20.910;2022-11-15T10:56:40;43.88;;;21.70;;
35330;SDS011;21441;52.190;20.910;2022-11-15T10:59:16;42.65;;;20.00;;
35330;SDS011;21441;52.190;20.910;2022-11-15T11:01:50;46.13;;;22.85;;
35330;SDS011;21441;52.190;20.910;2022-11-15T11:04:17;45.25;;;22.25;;
35330;SDS011;21441;52.190;20.910;2022-11-15T11:06:49;39.63;;;20.23;;
35330;SDS011;21441;52.190;20.910;2022-11-15T11:09:22;36.83;;;20.35;;
35330;SDS011;21441;52.190;20.910;2022-11-15T11:11:55;39.42;;;20.67;;
35330;SDS011;21441;52.190;20.910;2022-11-15T11:14:25;41.30;;;21.10;;
35330;SDS011;21441;52.190;20.910;2022-11-15T11:16:58;46.55;;;20.63;;
35330;SDS011;21441;52.190;20.910;2022-11-15T11:19:34;45.53;;;23.02;;
35330;SDS011;21441;52.190;20.910;2022-11-15T11:22:20;41.65;;;21.15;;
35330;SDS011;21441;52.190;20.910;2022-11-15T11:24:56;39.30;;;20.70;;
35330;SDS011;21441;52.190;20.910;2022-11-15T11:27:35;45.10;;;21.05;;
35330;SDS011;21441;52.190;20.910;2022-11-15T11:30:12;38.08;;;20.70;;
35330;SDS011;21441;52.190;20.910;2022-11-15T11:35:45;41.65;;;21.33;;
35330;SDS011;21441;52.190;20.910;2022-11-15T11:38:28;43.17;;;23.33;;
35330;SDS011;21441;52.190;20.910;2022-11-15T11:41:07;42.15;;;22.13;;
35330;SDS011;21441;52.190;20.910;2022-11-15T11:43:41;43.22;;;21.83;;
35330;SDS011;21441;52.190;20.910;2022-11-15T11:46:25;44.75;;;23.42;;
35330;SDS011;21441;52.190;20.910;2022-11-15T11:49:04;46.25;;;23.20;;
35330;SDS011;21441;52.190;20.910;2022-11-15T11:51:38;42.70;;;21.33;;
35330;SDS011;21441;52.190;20.910;2022-11-15T11:54:11;47.75;;;24.75;;
35330;SDS011;21441;52.190;20.910;2022-11-15T11:56:41;45.05;;;22.00;;
35330;SDS011;21441;52.190;20.910;2022-11-15T11:59:12;42.72;;;22.88;;
35330;SDS011;21441;52.190;20.910;2022-11-15T12:01:47;46.90;;;24.17;;
35330;SDS011;21441;52.190;20.910;2022-11-15T12:04:16;48.75;;;24.48;;
35330;SDS011;21441;52.190;20.910;2022-11-15T12:06:49;42.50;;;23.10;;
35330;SDS011;21441;52.190;20.910;2022-11-15T12:09:21;39.58;;;22.10;;
35330;SDS011;21441;52.190;20.910;2022-11-15T12:12:00;44.03;;;21.48;;
35330;SDS011;21441;52.190;20.910;2022-11-15T12:14:36;46.30;;;24.10;;
35330;SDS011;21441;52.190;20.910;2022-11-15T12:17:10;41.50;;;22.38;;
35330;SDS011;21441;52.190;20.910;2022-11-15T12:19:38;45.50;;;23.73;;
35330;SDS011;21441;52.190;20.910;2022-11-15T12:22:10;48.05;;;24.90;;
35330;SDS011;21441;52.190;20.910;2022-11-15T12:24:43;47.78;;;23.80;;
35330;SDS011;21441;52.190;20.910;2022-11-15T12:27:15;52.03;;;24.65;;
35330;SDS011;21441;52.190;20.910;2022-11-15T12:29:46;48.03;;;24.20;;
35330;SDS011;21441;52.190;20.910;2022-11-15T12:32:26;47.45;;;24.85;;
35330;SDS011;21441;52.190;20.910;2022-11-15T12:34:55;50.97;;;24.98;;
35330;SDS011;21441;52.190;20.910;2022-11-15T12:40:22;48.58;;;24.23;;
35330;SDS011;21441;52.190;20.910;2022-11-15T12:43:05;46.33;;;23.50;;
35330;SDS011;21441;52.190;20.910;2022-11-15T12:45:52;52.53;;;24.65;;
35330;SDS011;21441;52.190;20.910;2022-11-15T12:51:18;41.00;;;22.88;;
35330;SDS011;21441;52.190;20.910;2022-11-15T12:53:47;46.25;;;24.48;;
35330;SDS011;21441;52.190;20.910;2022-11-15T12:56:18;41.65;;;22.20;;
35330;SDS011;21441;52.190;20.910;2022-11-15T12:58:53;45.88;;;23.13;;
35330;SDS011;21441;52.190;20.910;2022-11-15T13:04:26;47.70;;;23.55;;
35330;SDS011;21441;52.190;20.910;2022-11-15T13:06:56;48.28;;;24.65;;
35330;SDS011;21441;52.190;20.910;2022-11-15T13:15:31;48.17;;;23.65;;
35330;SDS011;21441;52.190;20.910;2022-11-15T13:20:54;41.45;;;23.23;;
35330;SDS011;21441;52.190;20.910;2022-11-15T13:23:21;44.22;;;23.70;;
35330;SDS011;21441;52.190;20.910;2022-11-15T13:25:55;51.72;;;24.73;;
35330;SDS011;21441;52.190;20.910;2022-11-15T13:28:41;42.58;;;23.45;;
35330;SDS011;21441;52.190;20.910;2022-11-15T13:31:24;48.88;;;23.17;;
35330;SDS011;21441;52.190;20.910;2022-11-15T13:33:55;51.35;;;23.38;;
35330;SDS011;21441;52.190;20.910;2022-11-15T13:36:27;47.58;;;25.58;;
35330;SDS011;21441;52.190;20.910;2022-11-15T13:38:59;43.92;;;22.98;;
35330;SDS011;21441;52.190;20.910;2022-11-15T13:41:28;45.20;;;24.13;;
35330;SDS011;21441;52.190;20.910;2022-11-15T13:43:58;46.97;;;24.20;;
35330;SDS011;21441;52.190;20.910;2022-11-15T13:46:26;45.25;;;23.23;;
35330;SDS011;21441;52.190;20.910;2022-11-15T13:48:55;51.05;;;25.27;;
35330;SDS011;21441;52.190;20.910;2022-11-15T13:51:27;52.00;;;25.92;;
35330;SDS011;21441;52.190;20.910;2022-11-15T13:54:01;49.25;;;25.98;;
35330;SDS011;21441;52.190;20.910;2022-11-15T13:56:34;48.05;;;24.80;;
35330;SDS011;21441;52.190;20.910;2022-11-15T13:59:08;54.70;;;25.63;;
35330;SDS011;21441;52.190;20.910;2022-11-15T14:01:36;48.17;;;25.70;;
35330;SDS011;21441;52.190;20.910;2022-11-15T14:04:09;48.72;;;25.83;;
35330;SDS011;21441;52.190;20.910;2022-11-15T14:06:45;52.13;;;26.02;;
35330;SDS011;21441;52.190;20.910;2022-11-15T14:09:22;49.65;;;25.67;;
35330;SDS011;21441;52.190;20.910;2022-11-15T14:11:56;54.20;;;27.20;;
35330;SDS011;21441;52.190;20.910;2022-11-15T14:14:23;55.60;;;27.80;;
35330;SDS011;21441;52.190;20.910;2022-11-15T14:16:52;55.20;;;26.40;;
35330;SDS011;21441;52.190;20.910;2022-11-15T14:19:34;54.20;;;26.17;;
35330;SDS011;21441;52.190;20.910;2022-11-15T14:22:14;51.72;;;25.77;;
35330;SDS011;21441;52.190;20.910;2022-11-15T14:24:46;52.13;;;27.35;;
35330;SDS011;21441;52.190;20.910;2022-11-15T14:27:29;47.47;;;25.23;;
35330;SDS011;21441;52.190;20.910;2022-11-15T14:29:56;51.72;;;26.10;;
35330;SDS011;21441;52.190;20.910;2022-11-15T14:32:27;51.00;;;25.48;;
35330;SDS011;21441;52.190;20.910;2022-11-15T14:34:56;50.20;;;25.70;;
35330;SDS011;21441;52.190;20.910;2022-11-15T14:37:27;55.42;;;26.65;;
35330;SDS011;21441;52.190;20.910;2022-11-15T14:39:57;52.67;;;25.35;;
35330;SDS011;21441;52.190;20.910;2022-11-15T14:42:24;56.72;;;26.25;;
35330;SDS011;21441;52.190;20.910;2022-11-15T14:44:52;56.53;;;26.70;;
35330;SDS011;21441;52.190;20.910;2022-11-15T14:47:19;59.47;;;26.92;;
35330;SDS011;21441;52.190;20.910;2022-11-15T14:49:47;58.15;;;28.48;;
35330;SDS011;21441;52.190;20.910;2022-11-15T14:52:24;61.47;;;27.17;;
35330;SDS011;21441;52.190;20.910;2022-11-15T14:54:54;56.17;;;27.33;;
35330;SDS011;21441;52.190;20.910;2022-11-15T14:57:23;62.05;;;33.13;;